Time;durP1;ratioP1;P1;durP2;ratioP2;P2;SDS_P1;SDS_P2;PMS_P1;PMS_P2;Temp;Humidity;BMP_temperature;BMP_pressure;BME280_temperature;BME280_humidity;BME280_pressure;Samples;Min_cycle;Max_cycle;Signal;HPM_P1;HPM_P2
2023/08/10 00:00:24;;;;;;;4.57;1.67;;;15.00;99.90;;;;;;5011720;28;20041;-75
2023/08/10 00:02:50;;;;;;;6.78;1.65;;;15.00;99.90;;;;;;5034249;28;20104;-75
2023/08/10 00:05:16;;;;;;;3.65;1.50;;;14.90;99.90;;;;;;5010195;28;20160;-75
2023/08/10 00:07:41;;;;;;;6.82;1.33;;;14.80;99.90;;;;;;5032793;28;20036;-75
2023/08/10 00:10:08;;;;;;;5.20;2.97;;;14.80;99.90;;;;;;5000083;28;20554;-75
2023/08/10 00:12:35;;;;;;;4.57;1.48;;;14.70;99.90;;;;;;5016503;28;20116;-75
2023/08/10 00:15:01;;;;;;;3.85;2.03;;;14.70;99.90;;;;;;5012870;28;20036;-75
2023/08/10 00:17:26;;;;;;;8.32;2.38;;;14.70;99.90;;;;;;5030681;28;20033;-75
2023/08/10 00:19:52;;;;;;;5.72;1.77;;;14.60;99.90;;;;;;5001124;28;20022;-75
2023/08/10 00:22:17;;;;;;;4.65;2.63;;;14.60;99.90;;;;;;5003834;28;20172;-75
2023/08/10 00:24:43;;;;;;;5.00;2.03;;;14.50;99.90;;;;;;5020112;28;20095;-75
2023/08/10 00:27:08;;;;;;;5.63;1.73;;;14.50;99.90;;;;;;5032045;28;20037;-75
2023/08/10 00:29:34;;;;;;;9.07;1.80;;;14.50;99.90;;;;;;5020583;28;20022;-75
2023/08/10 00:32:00;;;;;;;15.65;1.80;;;14.40;99.90;;;;;;5022933;28;20022;-75
2023/08/10 00:34:25;;;;;;;4.05;1.50;;;14.50;99.90;;;;;;5027987;28;20026;-75
2023/08/10 00:36:51;;;;;;;3.33;1.20;;;14.40;99.90;;;;;;5019898;28;20073;-75
2023/08/10 00:39:17;;;;;;;9.55;2.75;;;14.40;99.90;;;;;;5011195;28;20041;-75
2023/08/10 00:41:43;;;;;;;4.57;1.65;;;14.40;99.90;;;;;;5024380;28;20100;-75
2023/08/10 00:44:08;;;;;;;3.60;1.48;;;14.40;99.90;;;;;;5014391;28;20109;-75
2023/08/10 00:46:34;;;;;;;2.70;1.45;;;14.40;99.90;;;;;;5020398;28;20361;-75
2023/08/10 00:48:59;;;;;;;6.35;2.40;;;14.40;99.90;;;;;;5029789;28;20079;-75
2023/08/10 00:51:25;;;;;;;7.80;2.38;;;14.40;99.90;;;;;;5014138;28;20034;-75
2023/08/10 00:53:51;;;;;;;7.03;2.17;;;14.30;99.90;;;;;;5005452;28;20552;-75
2023/08/10 00:56:17;;;;;;;4.95;2.20;;;14.30;99.90;;;;;;5004233;28;20042;-76
2023/08/10 00:58:44;;;;;;;7.10;1.42;;;14.30;99.90;;;;;;5026119;28;20033;-75
2023/08/10 01:01:09;;;;;;;5.55;1.85;;;14.20;99.90;;;;;;5017518;28;20031;-75
2023/08/10 01:03:35;;;;;;;5.88;2.30;;;14.20;99.90;;;;;;5021603;28;20026;-75
2023/08/10 01:06:13;;;;;;;5.15;1.85;;;14.20;99.90;;;;;;5016726;28;20085;-75
2023/08/10 01:08:48;;;;;;;5.75;1.52;;;14.10;99.90;;;;;;5006941;28;20392;-75
2023/08/10 01:11:36;;;;;;;7.50;1.90;;;14.10;99.90;;;;;;5016595;28;20034;-75
2023/08/10 01:14:25;;;;;;;7.40;1.98;;;14.00;99.90;;;;;;5001418;28;20496;-75
2023/08/10 01:16:52;;;;;;;3.25;1.30;;;14.00;99.90;;;;;;5013044;28;20029;-75
2023/08/10 01:19:38;;;;;;;2.10;1.08;;;14.00;99.90;;;;;;5015546;28;20395;-75
2023/08/10 01:22:28;;;;;;;5.40;1.50;;;14.00;99.90;;;;;;5003218;28;20508;-75
2023/08/10 01:25:05;;;;;;;4.03;1.88;;;14.10;99.90;;;;;;5024833;28;20373;-75
2023/08/10 01:27:32;;;;;;;2.55;1.63;;;14.10;99.90;;;;;;5026111;28;20041;-76
2023/08/10 01:30:00;;;;;;;5.50;2.20;;;14.10;99.90;;;;;;5026978;28;20088;-75
2023/08/10 01:32:30;;;;;;;4.03;2.22;;;14.10;99.90;;;;;;5015040;28;20037;-75
2023/08/10 01:34:56;;;;;;;5.72;2.50;;;14.10;99.90;;;;;;5024282;28;20022;-75
2023/08/10 01:37:22;;;;;;;3.97;2.45;;;14.10;99.90;;;;;;5009042;28;20061;-75
2023/08/10 01:39:48;;;;;;;7.05;3.47;;;14.10;99.90;;;;;;5020938;28;20081;-75
2023/08/10 01:42:14;;;;;;;7.45;3.70;;;14.10;99.90;;;;;;4992922;28;20034;-75
2023/08/10 01:44:39;;;;;;;7.75;4.03;;;14.00;99.90;;;;;;5003039;28;20018;-75
2023/08/10 01:47:09;;;;;;;8.30;5.10;;;14.00;99.90;;;;;;5018011;28;20027;-75
2023/08/10 01:49:36;;;;;;;16.85;6.00;;;13.90;99.90;;;;;;5019393;28;20491;-75
2023/08/10 01:52:07;;;;;;;11.68;7.53;;;13.90;99.90;;;;;;5009488;28;20042;-75
2023/08/10 01:54:36;;;;;;;9.02;6.65;;;13.80;99.90;;;;;;5022667;28;20105;-75
2023/08/10 01:57:02;;;;;;;10.35;7.07;;;13.80;99.90;;;;;;5029448;28;20039;-75
2023/08/10 01:59:28;;;;;;;15.20;7.82;;;13.80;99.90;;;;;;5022940;28;20101;-75
2023/08/10 02:01:55;;;;;;;7.13;3.63;;;13.70;99.90;;;;;;5024106;28;20105;-75
2023/08/10 02:04:20;;;;;;;5.45;4.03;;;13.60;99.90;;;;;;5020798;28;20033;-75
2023/08/10 02:06:46;;;;;;;8.00;5.38;;;13.60;99.90;;;;;;5011251;28;20025;-75
2023/08/10 02:09:11;;;;;;;19.55;12.73;;;13.60;99.90;;;;;;5018313;28;20109;-75
2023/08/10 02:11:37;;;;;;;9.65;6.05;;;13.50;99.90;;;;;;4992584;28;20038;-75
2023/08/10 02:14:03;;;;;;;11.63;8.07;;;13.40;99.90;;;;;;5003363;28;20061;-75
2023/08/10 02:16:28;;;;;;;11.70;7.43;;;13.40;99.90;;;;;;5021707;28;20036;-75
2023/08/10 02:18:54;;;;;;;12.52;6.93;;;13.40;99.90;;;;;;5019463;28;20033;-75
2023/08/10 02:21:23;;;;;;;11.10;6.13;;;13.40;99.90;;;;;;4996511;28;20045;-75
2023/08/10 02:23:50;;;;;;;10.38;5.25;;;13.40;99.90;;;;;;5018732;28;20029;-75
2023/08/10 02:26:16;;;;;;;8.20;4.40;;;13.40;99.90;;;;;;5025888;28;20033;-75
2023/08/10 02:28:41;;;;;;;11.07;5.32;;;13.40;99.90;;;;;;5021780;28;20584;-75
2023/08/10 02:31:07;;;;;;;6.25;3.63;;;13.40;99.90;;;;;;5021002;28;20026;-75
2023/08/10 02:33:33;;;;;;;6.18;2.97;;;13.50;99.90;;;;;;5027056;28;20033;-75
2023/08/10 02:35:58;;;;;;;3.40;2.28;;;13.50;99.90;;;;;;5014498;28;20044;-75
2023/08/10 02:38:24;;;;;;;7.50;3.22;;;13.50;99.90;;;;;;5022480;28;20052;-75
2023/08/10 02:40:49;;;;;;;9.23;3.17;;;13.50;99.90;;;;;;5012444;28;20454;-75
2023/08/10 02:43:15;;;;;;;5.68;3.03;;;13.50;99.90;;;;;;5020078;28;20043;-75
2023/08/10 02:45:40;;;;;;;6.20;2.95;;;13.50;99.90;;;;;;5012486;28;20022;-75
2023/08/10 02:48:06;;;;;;;7.93;3.33;;;13.50;99.90;;;;;;5026591;28;20040;-75
2023/08/10 02:50:32;;;;;;;6.68;2.88;;;13.50;99.90;;;;;;5013980;28;20037;-75
2023/08/10 02:52:57;;;;;;;9.73;2.53;;;13.50;99.90;;;;;;5025081;28;20539;-75
2023/08/10 02:55:23;;;;;;;5.43;2.30;;;13.40;99.90;;;;;;4999960;28;20279;-75
2023/08/10 02:57:48;;;;;;;5.13;2.67;;;13.40;99.90;;;;;;5021384;28;20061;-75
2023/08/10 03:00:14;;;;;;;5.82;2.78;;;13.40;99.90;;;;;;5012797;28;20037;-75
2023/08/10 03:02:40;;;;;;;2.92;1.42;;;13.40;99.90;;;;;;5028281;28;20373;-75
2023/08/10 03:05:06;;;;;;;2.38;1.17;;;13.50;99.90;;;;;;5001701;28;20102;-75
2023/08/10 03:07:32;;;;;;;3.63;1.35;;;13.40;99.90;;;;;;5012333;28;20117;-75
2023/08/10 03:09:57;;;;;;;5.28;2.13;;;13.50;99.90;;;;;;5022883;28;20022;-75
2023/08/10 03:12:23;;;;;;;4.88;1.67;;;13.50;99.90;;;;;;5006481;28;20490;-75
2023/08/10 03:14:49;;;;;;;4.90;3.08;;;13.50;99.90;;;;;;5002309;28;20036;-75
2023/08/10 03:17:15;;;;;;;5.95;2.55;;;13.50;99.90;;;;;;5023930;28;20033;-75
2023/08/10 03:19:41;;;;;;;;;;;13.40;99.90;;;;;;5023114;28;20025;-75
2023/08/10 03:22:07;;;;;;;7.82;1.77;;;13.40;99.90;;;;;;4995682;28;19905;-75
2023/08/10 03:24:35;;;;;;;4.78;2.47;;;13.40;99.90;;;;;;5012699;28;20053;-75
2023/08/10 03:27:00;;;;;;;5.60;2.95;;;13.30;99.90;;;;;;5011009;28;20036;-75
2023/08/10 03:29:26;;;;;;;5.00;1.95;;;13.30;99.90;;;;;;5024774;28;20034;-75
2023/08/10 03:31:51;;;;;;;4.80;2.00;;;13.20;99.90;;;;;;5010975;28;20538;-75
2023/08/10 03:34:17;;;;;;;5.70;2.25;;;13.20;99.90;;;;;;5027147;28;20073;-75
2023/08/10 03:36:42;;;;;;;5.38;2.20;;;13.10;99.90;;;;;;5018007;28;20103;-75
2023/08/10 03:39:08;;;;;;;7.05;3.88;;;13.10;99.90;;;;;;5016988;28;20058;-75
2023/08/10 03:41:33;;;;;;;8.30;4.10;;;13.10;99.90;;;;;;5028910;28;20104;-75
2023/08/10 03:43:59;;;;;;;7.40;3.03;;;13.10;99.90;;;;;;5014528;28;20030;-75
2023/08/10 03:46:24;;;;;;;5.25;2.35;;;13.10;99.90;;;;;;5019458;28;20022;-75
2023/08/10 03:48:50;;;;;;;;;;;13.20;99.90;;;;;;5028332;28;20038;-75
2023/08/10 03:51:15;;;;;;;3.78;1.90;;;13.20;99.90;;;;;;5017680;28;19967;-75
2023/08/10 03:53:41;;;;;;;3.55;3.10;;;13.20;99.90;;;;;;5009795;28;20067;-75
2023/08/10 03:56:06;;;;;;;;;;;13.20;99.90;;;;;;5010817;28;20491;-75
2023/08/10 03:58:33;;;;;;;2.88;1.90;;;13.20;99.90;;;;;;5026511;28;19921;-75
2023/08/10 04:00:58;;;;;;;5.60;2.97;;;13.20;99.90;;;;;;4998355;28;20397;-75
2023/08/10 04:03:24;;;;;;;7.70;2.47;;;13.30;99.90;;;;;;5011005;28;20093;-75
2023/08/10 04:05:49;;;;;;;;;;;13.20;99.90;;;;;;5016885;28;20075;-75
2023/08/10 04:08:15;;;;;;;7.15;2.60;;;13.20;99.90;;;;;;5009285;28;20008;-75
2023/08/10 04:10:41;;;;;;;3.85;2.72;;;13.20;99.90;;;;;;5004449;28;20034;-75
2023/08/10 04:13:06;;;;;;;5.88;2.47;;;13.20;99.90;;;;;;5026272;28;20381;-75
2023/08/10 04:15:32;;;;;;;6.85;2.80;;;13.20;99.90;;;;;;5009033;28;20113;-75
2023/08/10 04:17:58;;;;;;;3.30;2.20;;;13.10;99.90;;;;;;5009155;28;20025;-75
2023/08/10 04:20:24;;;;;;;8.40;2.15;;;13.10;99.90;;;;;;5018606;28;20022;-75
2023/08/10 04:22:50;;;;;;;6.50;1.95;;;13.10;99.90;;;;;;5005761;28;20066;-75
2023/08/10 04:25:16;;;;;;;9.07;2.03;;;13.10;99.90;;;;;;5001055;28;20053;-75
2023/08/10 04:27:41;;;;;;;9.50;2.60;;;13.10;99.90;;;;;;5026964;28;20491;-75
2023/08/10 04:30:08;;;;;;;5.22;2.05;;;13.10;99.90;;;;;;5007503;28;20476;-74
2023/08/10 04:32:35;;;;;;;4.30;1.85;;;13.30;99.90;;;;;;5012342;28;20496;-73
2023/08/10 04:35:02;;;;;;;3.90;1.80;;;13.80;99.90;;;;;;5003351;28;20090;-75
2023/08/10 04:37:27;;;;;;;6.88;2.40;;;14.30;99.90;;;;;;5013251;28;20500;-75
2023/08/10 04:39:53;;;;;;;8.68;2.33;;;14.40;99.90;;;;;;5021367;28;20061;-75
2023/08/10 04:42:19;;;;;;;7.75;1.77;;;14.40;99.90;;;;;;5011550;28;20389;-75
2023/08/10 04:44:44;;;;;;;10.30;2.63;;;14.50;99.90;;;;;;5004394;28;20029;-74
2023/08/10 04:47:10;;;;;;;;;;;14.70;99.90;;;;;;5012918;28;20025;-74
2023/08/10 04:49:35;;;;;;;7.72;2.58;;;15.00;99.90;;;;;;5030726;28;19909;-74
2023/08/10 04:52:01;;;;;;;6.55;1.77;;;15.30;99.90;;;;;;5010130;28;20445;-74
2023/08/10 04:54:27;;;;;;;6.75;2.50;;;15.30;99.90;;;;;;5007806;28;20667;-74
2023/08/10 04:56:52;;;;;;;5.10;1.92;;;15.20;99.90;;;;;;5024085;28;20112;-74
2023/08/10 04:59:18;;;;;;;5.15;3.05;;;15.30;99.90;;;;;;5013949;28;20034;-74
2023/08/10 05:01:43;;;;;;;7.53;2.10;;;15.30;99.90;;;;;;5017640;28;20384;-74
2023/08/10 05:04:09;;;;;;;;;;;15.20;99.90;;;;;;5015860;28;20034;-73
2023/08/10 05:06:35;;;;;;;4.05;2.05;;;15.00;99.90;;;;;;5024776;28;19909;-73
2023/08/10 05:09:01;;;;;;;12.25;2.20;;;15.00;99.90;;;;;;5000618;28;20036;-73
2023/08/10 05:11:27;;;;;;;8.90;2.30;;;15.10;99.90;;;;;;5000711;28;20022;-73
2023/08/10 05:13:53;;;;;;;8.05;3.17;;;15.10;99.90;;;;;;5024658;28;20081;-73
2023/08/10 05:16:18;;;;;;;5.28;2.20;;;15.30;99.90;;;;;;5001588;28;20023;-73
2023/08/10 05:18:44;;;;;;;10.10;2.05;;;15.40;99.90;;;;;;5005537;28;20026;-75
2023/08/10 05:21:09;;;;;;;7.30;2.55;;;15.40;99.90;;;;;;5008522;28;20040;-76
2023/08/10 05:23:37;;;;;;;6.07;1.92;;;15.50;99.90;;;;;;5011807;28;20030;-76
2023/08/10 05:26:02;;;;;;;5.85;1.80;;;15.40;99.90;;;;;;5013152;28;20029;-76
2023/08/10 05:28:28;;;;;;;5.05;2.60;;;15.50;99.90;;;;;;5007916;28;20033;-76
2023/08/10 05:30:53;;;;;;;4.90;1.55;;;15.60;99.90;;;;;;5018014;28;20049;-76
2023/08/10 05:33:19;;;;;;;6.30;2.05;;;15.70;99.90;;;;;;5010723;28;20042;-76
2023/08/10 05:35:46;;;;;;;6.53;2.05;;;15.90;99.90;;;;;;5007942;28;20030;-76
2023/08/10 05:38:12;;;;;;;7.85;2.38;;;16.10;99.90;;;;;;5016456;28;20060;-76
2023/08/10 05:40:38;;;;;;;5.03;1.77;;;16.40;99.90;;;;;;5006901;28;20021;-77
2023/08/10 05:43:04;;;;;;;6.53;1.52;;;16.70;99.90;;;;;;5009519;28;20028;-76
2023/08/10 05:45:30;;;;;;;6.45;1.60;;;16.80;99.90;;;;;;5005502;28;20641;-76
2023/08/10 05:47:56;;;;;;;9.80;1.52;;;16.80;99.90;;;;;;5009049;28;20491;-76
2023/08/10 05:50:22;;;;;;;8.57;1.38;;;16.70;99.90;;;;;;4999513;28;20053;-76
2023/08/10 05:52:48;;;;;;;6.88;1.90;;;16.60;99.90;;;;;;5010628;28;20083;-76
2023/08/10 05:55:14;;;;;;;11.27;2.45;;;16.40;99.90;;;;;;5014624;28;20368;-76
2023/08/10 05:57:40;;;;;;;6.95;2.47;;;16.30;99.90;;;;;;5013999;28;20026;-76
2023/08/10 06:00:08;;;;;;;5.78;1.60;;;16.30;99.90;;;;;;5014826;28;20125;-75
2023/08/10 06:02:33;;;;;;;4.43;1.75;;;16.20;99.90;;;;;;5012065;28;20056;-75
2023/08/10 06:04:59;;;;;;;6.07;2.30;;;16.20;99.90;;;;;;5014164;28;20050;-75
2023/08/10 06:07:24;;;;;;;12.35;2.30;;;16.20;99.90;;;;;;5024123;28;20025;-76
2023/08/10 06:09:50;;;;;;;10.70;1.90;;;16.20;99.90;;;;;;5009373;28;20101;-76
2023/08/10 06:12:17;;;;;;;8.68;1.90;;;16.30;99.90;;;;;;4998898;28;20144;-76
2023/08/10 06:14:44;;;;;;;7.32;2.10;;;16.40;99.90;;;;;;5016625;28;20587;-76
2023/08/10 06:17:09;;;;;;;8.18;2.72;;;16.40;99.90;;;;;;5015621;28;20038;-78
2023/08/10 06:19:35;;;;;;;5.93;1.75;;;16.50;99.90;;;;;;5006764;28;20045;-77
2023/08/10 06:22:01;;;;;;;8.57;2.05;;;16.60;99.90;;;;;;5008226;28;20034;-77
2023/08/10 06:24:26;;;;;;;3.90;1.65;;;16.70;99.90;;;;;;5002579;28;20030;-76
2023/08/10 06:26:52;;;;;;;8.38;2.63;;;16.80;99.90;;;;;;5002608;28;20072;-77
2023/08/10 06:29:21;;;;;;;7.40;2.63;;;16.90;99.90;;;;;;5017859;28;20036;-77
2023/08/10 06:31:46;;;;;;;10.95;2.15;;;17.10;99.90;;;;;;5006528;28;20065;-76
2023/08/10 06:34:12;;;;;;;7.10;2.65;;;17.30;99.90;;;;;;5004678;28;20027;-76
2023/08/10 06:36:38;;;;;;;5.88;1.92;;;17.40;99.90;;;;;;5017928;28;20114;-77
2023/08/10 06:39:04;;;;;;;3.67;1.33;;;17.40;99.90;;;;;;5014695;28;20034;-76
2023/08/10 06:41:30;;;;;;;3.92;0.82;;;17.50;99.90;;;;;;5012476;28;20022;-76
2023/08/10 06:43:56;;;;;;;6.47;1.25;;;17.50;99.90;;;;;;5000689;28;20027;-76
2023/08/10 06:46:22;;;;;;;9.38;1.58;;;17.30;99.90;;;;;;5009765;28;20025;-77
2023/08/10 06:48:47;;;;;;;8.07;1.65;;;17.20;99.90;;;;;;5005864;28;20083;-76
2023/08/10 06:51:13;;;;;;;2.85;0.88;;;17.10;99.90;;;;;;5006728;28;20026;-77
2023/08/10 06:53:38;;;;;;;8.35;1.00;;;17.10;99.90;;;;;;5017996;28;20022;-75
2023/08/10 06:56:05;;;;;;;5.43;1.48;;;17.00;99.90;;;;;;5003216;28;20034;-75
2023/08/10 06:58:32;;;;;;;4.50;1.60;;;16.90;99.90;;;;;;5012032;28;20070;-75
2023/08/10 07:01:00;;;;;;;3.70;1.30;;;16.90;99.90;;;;;;5012234;28;20050;-77
2023/08/10 07:03:26;;;;;;;5.15;1.70;;;16.90;99.90;;;;;;5002659;28;20076;-77
2023/08/10 07:05:51;;;;;;;5.35;1.33;;;16.90;99.90;;;;;;5016973;28;20049;-78
2023/08/10 07:08:17;;;;;;;2.40;1.08;;;16.90;99.90;;;;;;5015468;28;20029;-78
2023/08/10 07:10:43;;;;;;;2.17;1.35;;;17.00;99.90;;;;;;5005982;28;20066;-78
2023/08/10 07:13:09;;;;;;;4.28;1.52;;;17.10;99.90;;;;;;5010885;28;20507;-78
2023/08/10 07:15:34;;;;;;;9.52;2.20;;;17.20;99.90;;;;;;5001207;28;20373;-78
2023/08/10 07:18:00;;;;;;;7.68;2.13;;;17.20;99.90;;;;;;5002807;28;20037;-78
2023/08/10 07:20:26;;;;;;;5.20;1.13;;;17.20;99.90;;;;;;5019344;28;20096;-78
2023/08/10 07:22:51;;;;;;;4.55;1.90;;;17.20;99.90;;;;;;5006877;28;20026;-77
2023/08/10 07:25:19;;;;;;;4.05;2.15;;;17.20;99.90;;;;;;5021352;28;20026;-77
2023/08/10 07:27:45;;;;;;;6.80;1.60;;;17.20;99.90;;;;;;4999653;28;20029;-78
2023/08/10 07:30:13;;;;;;;7.22;1.65;;;17.30;99.90;;;;;;5004200;28;20030;-77
2023/08/10 07:32:39;;;;;;;5.35;1.30;;;17.30;99.90;;;;;;4996581;28;20436;-77
2023/08/10 07:35:05;;;;;;;5.72;1.33;;;17.40;99.90;;;;;;5013443;28;20101;-76
2023/08/10 07:37:30;;;;;;;7.38;0.90;;;17.60;99.40;;;;;;5018008;28;20484;-78
2023/08/10 07:39:56;;;;;;;8.07;1.33;;;17.80;99.00;;;;;;5010912;28;20033;-78
2023/08/10 07:42:22;;;;;;;4.53;1.30;;;18.00;98.30;;;;;;5001771;28;20030;-80
2023/08/10 07:44:48;;;;;;;6.45;2.55;;;18.10;98.70;;;;;;5003836;28;20026;-78
2023/08/10 07:47:13;;;;;;;14.07;4.00;;;18.20;99.00;;;;;;5004524;28;20419;-79
2023/08/10 07:49:41;;;;;;;6.28;0.98;;;18.30;98.30;;;;;;5000613;28;20109;-79
2023/08/10 07:52:07;;;;;;;6.35;1.45;;;18.20;98.20;;;;;;5015171;28;20033;-79
2023/08/10 07:54:32;;;;;;;2.47;0.95;;;18.20;98.20;;;;;;5004863;28;20487;-78
2023/08/10 07:56:58;;;;;;;5.05;1.50;;;18.30;97.60;;;;;;5015072;28;20375;-78
2023/08/10 07:59:23;;;;;;;8.63;1.20;;;18.30;98.20;;;;;;5008065;28;21236;-77
2023/08/10 08:01:49;;;;;;;5.47;1.30;;;18.40;97.70;;;;;;4999013;28;20030;-78
2023/08/10 08:04:14;;;;;;;1.70;1.00;;;18.50;97.20;;;;;;4997001;28;20607;-77
2023/08/10 08:06:40;;;;;;;6.65;1.17;;;18.70;97.30;;;;;;5011815;28;20464;-76
2023/08/10 08:09:07;;;;;;;3.72;0.93;;;19.00;97.40;;;;;;5004001;28;20065;-76
2023/08/10 08:11:34;;;;;;;5.93;0.93;;;19.40;96.60;;;;;;5013673;28;20026;-75
2023/08/10 08:14:01;;;;;;;6.97;1.63;;;19.60;95.80;;;;;;5001375;28;20101;-76
2023/08/10 08:16:26;;;;;;;8.93;1.10;;;19.80;95.50;;;;;;4999352;28;20038;-76
2023/08/10 08:18:55;;;;;;;5.18;1.67;;;20.00;94.70;;;;;;5015348;28;20037;-77
2023/08/10 08:21:28;;;;;;;4.35;0.90;;;20.10;94.40;;;;;;5011453;28;20030;-77
2023/08/10 08:23:54;;;;;;;3.45;0.60;;;20.20;94.30;;;;;;5003515;28;20113;-76
2023/08/10 08:26:23;;;;;;;7.80;1.30;;;20.10;93.90;;;;;;5023541;28;20022;-76
2023/08/10 08:28:50;;;;;;;8.20;1.40;;;20.10;93.70;;;;;;5021094;28;20045;-76
2023/08/10 08:31:16;;;;;;;3.60;0.85;;;20.00;94.00;;;;;;5008783;28;20056;-76
2023/08/10 08:33:42;;;;;;;4.78;0.95;;;19.90;94.10;;;;;;5015644;28;20026;-76
2023/08/10 08:36:08;;;;;;;3.10;1.17;;;19.90;94.00;;;;;;5019355;28;20136;-76
2023/08/10 08:38:34;;;;;;;3.58;0.98;;;20.00;93.90;;;;;;5005916;28;20026;-76
2023/08/10 08:41:04;;;;;;;6.05;1.38;;;20.00;94.10;;;;;;5018047;28;20028;-78
2023/08/10 08:43:31;;;;;;;9.55;1.08;;;20.20;94.10;;;;;;5001731;28;20489;-77
2023/08/10 08:45:58;;;;;;;2.97;0.60;;;20.50;94.50;;;;;;5005239;28;20026;-77
2023/08/10 08:48:25;;;;;;;7.70;1.00;;;20.80;93.30;;;;;;5016351;28;20495;-78
2023/08/10 08:50:51;;;;;;;3.45;0.88;;;21.00;93.60;;;;;;5008756;28;20030;-79
2023/08/10 08:53:17;;;;;;;9.63;1.20;;;20.90;92.70;;;;;;5011788;28;20120;-78
2023/08/10 08:55:42;;;;;;;6.72;1.20;;;20.80;92.20;;;;;;5017695;28;20472;-77
2023/08/10 08:58:08;;;;;;;4.70;0.88;;;20.60;91.20;;;;;;5002233;28;20485;-77
2023/08/10 09:00:34;;;;;;;3.88;1.08;;;20.30;91.20;;;;;;5005853;28;20054;-77
2023/08/10 09:03:01;;;;;;;11.82;1.58;;;20.30;92.00;;;;;;5013557;28;20103;-78
2023/08/10 09:05:27;;;;;;;3.28;0.82;;;20.40;92.00;;;;;;5025128;28;20049;-78
2023/08/10 09:07:53;;;;;;;6.60;1.33;;;20.40;91.40;;;;;;5014233;28;20035;-78
2023/08/10 09:10:20;;;;;;;6.95;1.15;;;20.10;91.40;;;;;;5021783;28;20439;-78
2023/08/10 09:12:46;;;;;;;4.70;1.15;;;19.90;91.70;;;;;;5012750;28;20053;-77
2023/08/10 09:15:16;;;;;;;2.58;0.85;;;19.80;91.90;;;;;;4998331;28;20115;-77
2023/08/10 09:17:52;;;;;;;2.47;0.82;;;19.70;91.90;;;;;;5003827;28;20030;-77
2023/08/10 09:20:25;;;;;;;6.22;1.25;;;19.40;92.10;;;;;;5016319;28;20026;-77
2023/08/10 09:22:52;;;;;;;7.25;1.13;;;19.10;92.50;;;;;;5016555;28;20068;-77
2023/08/10 09:25:18;;;;;;;4.80;0.90;;;19.10;92.80;;;;;;5023068;28;20037;-77
2023/08/10 09:27:45;;;;;;;4.93;0.93;;;19.10;92.90;;;;;;5003476;28;20029;-79
2023/08/10 09:30:11;;;;;;;8.05;0.77;;;19.10;92.90;;;;;;5009261;28;20037;-77
2023/08/10 09:32:38;;;;;;;7.15;1.67;;;19.20;92.90;;;;;;5010659;28;20396;-78
2023/08/10 09:35:05;;;;;;;2.88;1.05;;;19.20;92.90;;;;;;5006555;28;20030;-78
2023/08/10 09:37:31;;;;;;;2.15;0.73;;;19.30;92.50;;;;;;5006440;28;20527;-79
2023/08/10 09:40:00;;;;;;;7.22;1.50;;;19.30;92.40;;;;;;5016104;28;20042;-79
2023/08/10 09:42:31;;;;;;;7.78;0.98;;;19.20;92.70;;;;;;5010509;28;20080;-79
2023/08/10 09:44:59;;;;;;;5.53;1.25;;;19.30;92.80;;;;;;5003514;28;20029;-78
2023/08/10 09:47:24;;;;;;;3.15;1.13;;;19.30;92.90;;;;;;5010140;28;20025;-78
2023/08/10 09:50:01;;;;;;;3.33;1.23;;;19.40;92.90;;;;;;5008671;28;20422;-78
2023/08/10 09:52:28;;;;;;;3.35;1.02;;;19.60;93.00;;;;;;5006408;28;20050;-78
2023/08/10 09:54:56;;;;;;;4.05;1.02;;;19.80;92.50;;;;;;5009683;28;20374;-78
2023/08/10 09:57:23;;;;;;;4.05;1.13;;;20.00;92.00;;;;;;5010605;28;20025;-78
2023/08/10 09:59:49;;;;;;;3.90;1.33;;;20.20;91.60;;;;;;5016941;28;20030;-78
2023/08/10 10:02:17;;;;;;;4.72;1.00;;;20.40;91.20;;;;;;5010314;28;20387;-78
2023/08/10 10:04:43;;;;;;;2.10;0.80;;;20.60;90.80;;;;;;5010307;28;20432;-78
2023/08/10 10:07:13;;;;;;;5.80;1.25;;;20.80;90.50;;;;;;5018989;28;20029;-78
2023/08/10 10:09:44;;;;;;;3.78;1.02;;;21.20;88.40;;;;;;5014763;28;20033;-75
2023/08/10 10:12:11;;;;;;;5.30;1.00;;;21.40;88.20;;;;;;5011795;28;20030;-77
2023/08/10 10:14:46;;;;;;;4.22;0.90;;;21.60;86.70;;;;;;5013338;28;20377;-77
2023/08/10 10:17:15;;;;;;;2.43;0.83;;;22.00;85.60;;;;;;5010033;28;20022;-77
2023/08/10 10:19:41;;;;;;;2.65;0.85;;;22.20;83.10;;;;;;5010753;28;20400;-77
2023/08/10 10:22:08;;;;;;;2.45;1.33;;;21.90;83.30;;;;;;5016644;28;20480;-77
2023/08/10 10:24:38;;;;;;;3.65;0.85;;;21.70;83.20;;;;;;5018755;28;20508;-77
2023/08/10 10:27:08;;;;;;;2.38;0.68;;;21.30;83.60;;;;;;5009757;28;20078;-77
2023/08/10 10:29:40;;;;;;;3.42;1.17;;;21.10;84.50;;;;;;4997211;28;20540;-77
2023/08/10 10:32:13;;;;;;;2.53;1.13;;;21.10;84.90;;;;;;4995303;28;20138;-77
2023/08/10 10:34:40;;;;;;;3.13;0.80;;;21.00;85.50;;;;;;5014518;28;20061;-77
2023/08/10 10:37:12;;;;;;;3.38;1.20;;;21.00;84.70;;;;;;5006170;28;20034;-77
2023/08/10 10:40:18;;;;;;;5.38;1.23;;;21.00;83.20;;;;;;5015126;28;20384;-77
2023/08/10 10:43:10;;;;;;;3.63;0.93;;;20.90;83.40;;;;;;5004440;28;20404;-77
2023/08/10 10:45:41;;;;;;;2.50;0.98;;;20.80;82.20;;;;;;4997324;28;20066;-76
2023/08/10 10:48:09;;;;;;;1.65;0.98;;;20.70;82.80;;;;;;4998887;28;20042;-78
2023/08/10 10:50:35;;;;;;;3.65;1.10;;;20.80;83.00;;;;;;5026689;28;20030;-79
2023/08/10 10:53:04;;;;;;;3.22;0.98;;;20.80;82.50;;;;;;5009847;28;20060;-79
2023/08/10 10:55:35;;;;;;;5.35;1.10;;;20.90;82.80;;;;;;5007076;28;20052;-79
2023/08/10 10:58:05;;;;;;;8.77;1.48;;;21.10;83.10;;;;;;5011027;28;20056;-78
2023/08/10 11:00:31;;;;;;;5.03;1.10;;;21.10;81.10;;;;;;5000895;28;20053;-79
2023/08/10 11:02:57;;;;;;;6.65;1.65;;;21.10;80.80;;;;;;5009680;28;20026;-79
2023/08/10 11:05:23;;;;;;;3.60;1.20;;;21.10;81.70;;;;;;5015672;28;20365;-78
2023/08/10 11:07:51;;;;;;;5.15;1.35;;;21.10;82.70;;;;;;5028551;28;20108;-79
2023/08/10 11:10:23;;;;;;;4.00;1.02;;;21.30;82.50;;;;;;4998126;28;20072;-78
2023/08/10 11:12:50;;;;;;;1.85;0.82;;;21.40;80.60;;;;;;5011615;28;20032;-78
2023/08/10 11:15:17;;;;;;;7.50;1.65;;;21.30;79.70;;;;;;5007717;28;20041;-77
2023/08/10 11:17:48;;;;;;;1.60;0.90;;;21.20;80.60;;;;;;4997625;28;20030;-78
2023/08/10 11:20:15;;;;;;;2.55;0.80;;;21.40;80.40;;;;;;4998738;28;20026;-77
2023/08/10 11:22:44;;;;;;;4.68;0.85;;;21.80;78.10;;;;;;5014998;28;20106;-77
2023/08/10 11:25:11;;;;;;;2.30;0.80;;;21.90;77.30;;;;;;5002904;28;20034;-78
2023/08/10 11:27:42;;;;;;;7.45;1.15;;;22.00;76.90;;;;;;5010293;28;20463;-77
2023/08/10 11:30:09;;;;;;;3.63;1.00;;;22.10;76.60;;;;;;4992240;28;20031;-78
2023/08/10 11:32:42;;;;;;;3.47;0.85;;;22.20;76.80;;;;;;5009585;28;20030;-78
2023/08/10 11:35:09;;;;;;;2.30;0.98;;;22.40;75.30;;;;;;4996298;28;20037;-78
2023/08/10 11:37:38;;;;;;;2.78;0.93;;;22.60;73.90;;;;;;5014021;28;20034;-78
2023/08/10 11:40:05;;;;;;;4.60;1.05;;;22.60;73.00;;;;;;5014834;28;20397;-76
2023/08/10 11:42:36;;;;;;;1.60;0.70;;;22.60;71.90;;;;;;5013890;28;20025;-75
2023/08/10 11:45:06;;;;;;;3.25;0.73;;;22.60;69.60;;;;;;5002543;28;20034;-77
2023/08/10 11:47:57;;;;;;;2.33;0.68;;;22.50;70.40;;;;;;5004544;28;20141;-78
2023/08/10 11:50:25;;;;;;;3.63;1.15;;;22.60;70.50;;;;;;5019414;28;20402;-77
2023/08/10 11:52:54;;;;;;;3.25;0.73;;;22.80;71.90;;;;;;5023888;28;20072;-76
2023/08/10 11:55:21;;;;;;;2.03;0.60;;;22.90;70.70;;;;;;5016777;28;20033;-77
2023/08/10 11:57:48;;;;;;;3.20;1.13;;;22.90;71.50;;;;;;5012015;28;20060;-78
2023/08/10 12:00:33;;;;;;;4.07;0.95;;;23.10;73.00;;;;;;5013602;28;20156;-78
2023/08/10 12:03:23;;;;;;;1.48;1.00;;;23.30;70.70;;;;;;5016342;28;20025;-77
2023/08/10 12:05:51;;;;;;;4.18;0.88;;;23.20;69.90;;;;;;5010309;28;20026;-79
2023/08/10 12:08:18;;;;;;;3.85;0.80;;;22.80;70.00;;;;;;5005806;28;20128;-77
2023/08/10 12:10:50;;;;;;;4.10;1.20;;;22.30;71.40;;;;;;5011390;28;20037;-77
2023/08/10 12:13:17;;;;;;;3.83;1.10;;;22.00;73.50;;;;;;5018525;28;20037;-73
2023/08/10 12:15:46;;;;;;;4.40;1.15;;;21.90;75.40;;;;;;5009779;28;20381;-73
2023/08/10 12:18:13;;;;;;;4.72;1.30;;;21.70;75.10;;;;;;5019117;28;20095;-74
2023/08/10 12:20:38;;;;;;;3.35;0.90;;;21.70;75.70;;;;;;5011238;28;20411;-75
2023/08/10 12:23:04;;;;;;;5.47;1.25;;;21.80;76.10;;;;;;5021745;28;20030;-79
2023/08/10 12:25:29;;;;;;;5.00;1.00;;;22.00;74.80;;;;;;5019624;28;20493;-78
2023/08/10 12:27:55;;;;;;;4.85;1.10;;;22.10;73.60;;;;;;5006498;28;20065;-77
2023/08/10 12:30:21;;;;;;;3.20;0.75;;;22.10;74.00;;;;;;5022341;28;20033;-77
2023/08/10 12:32:47;;;;;;;4.45;0.70;;;22.00;74.60;;;;;;5011902;28;21492;-78
2023/08/10 12:35:14;;;;;;;3.63;0.70;;;22.00;74.10;;;;;;5012863;28;20113;-79
2023/08/10 12:37:40;;;;;;;4.75;0.98;;;22.00;74.00;;;;;;5025063;28;20044;-78
2023/08/10 12:40:06;;;;;;;2.58;0.90;;;22.10;74.00;;;;;;5008379;28;20034;-78
2023/08/10 12:42:31;;;;;;;4.50;0.98;;;22.20;75.00;;;;;;5018800;28;20034;-78
2023/08/10 12:44:57;;;;;;;1.95;0.75;;;22.60;72.70;;;;;;5014191;28;20109;-78
2023/08/10 12:47:22;;;;;;;2.97;1.00;;;22.70;70.60;;;;;;5006471;28;20037;-78